createdAt,value
2018-06-30T00:00:21.875Z,9.80
2018-06-30T00:02:34.475Z,10.17
2018-06-30T00:04:50.355Z,10.27
2018-06-30T00:07:02.765Z,10.23
2018-06-30T00:09:16.634Z,11.27
2018-06-30T00:11:29.087Z,10.80
2018-06-30T00:13:41.975Z,10.87
2018-06-30T00:15:55.071Z,10.43
2018-06-30T00:18:08.172Z,10.20
2018-06-30T00:20:20.993Z,10.13
2018-06-30T00:22:33.888Z,10.87
2018-06-30T00:24:47.411Z,9.60
2018-06-30T00:27:06.619Z,11.67
2018-06-30T00:29:19.982Z,10.63
2018-06-30T00:31:33.380Z,9.40
2018-06-30T00:33:46.810Z,8.93
2018-06-30T00:36:00.359Z,9.83
2018-06-30T00:38:13.563Z,10.17
2018-06-30T00:40:26.471Z,9.60
2018-06-30T00:42:39.859Z,9.70
2018-06-30T00:44:54.062Z,9.93
2018-06-30T00:47:07.443Z,10.13
2018-06-30T00:49:20.927Z,9.07
2018-06-30T00:51:34.975Z,9.77
2018-06-30T00:53:48.237Z,9.67
2018-06-30T00:56:01.276Z,9.30
2018-06-30T00:58:15.050Z,9.30
2018-06-30T01:00:29.065Z,8.57
2018-06-30T01:02:41.602Z,9.20
2018-06-30T01:04:55.688Z,9.43
2018-06-30T01:07:08.802Z,9.50
2018-06-30T01:09:22.290Z,9.30
2018-06-30T01:11:35.363Z,9.70
2018-06-30T01:13:47.958Z,9.43
2018-06-30T01:16:01.034Z,9.97
2018-06-30T01:18:15.152Z,9.77
2018-06-30T01:20:29.471Z,10.17
2018-06-30T01:22:42.262Z,10.13
2018-06-30T01:24:55.071Z,9.70
2018-06-30T01:27:08.926Z,10.60
2018-06-30T01:29:21.783Z,11.27
2018-06-30T01:31:35.259Z,10.17
2018-06-30T01:33:49.063Z,10.00
2018-06-30T01:36:02.839Z,10.47
2018-06-30T01:38:16.123Z,9.57
2018-06-30T01:40:28.919Z,10.03
2018-06-30T01:42:42.028Z,10.03
2018-06-30T01:44:54.454Z,9.60
2018-06-30T01:47:07.424Z,10.57
2018-06-30T01:49:19.898Z,10.27
2018-06-30T01:51:32.571Z,10.63
2018-06-30T01:53:46.299Z,10.50
2018-06-30T01:55:59.170Z,10.57
2018-06-30T01:58:12.506Z,10.27
2018-06-30T02:00:25.780Z,10.87
2018-06-30T02:02:39.760Z,12.57
2018-06-30T02:04:52.935Z,11.93
2018-06-30T02:07:07.436Z,11.80
2018-06-30T02:09:19.891Z,11.00
2018-06-30T02:11:33.202Z,10.27
2018-06-30T02:13:46.918Z,10.20
2018-06-30T02:15:59.475Z,9.83
2018-06-30T02:18:13.383Z,10.07
2018-06-30T02:20:26.454Z,10.77
2018-06-30T02:22:39.390Z,10.47
2018-06-30T02:24:52.718Z,10.47
2018-06-30T02:27:05.835Z,10.80
2018-06-30T02:29:19.747Z,10.57
2018-06-30T02:31:32.907Z,10.33
2018-06-30T02:33:45.803Z,11.13
2018-06-30T02:35:58.713Z,10.70
2018-06-30T02:38:11.710Z,11.00
2018-06-30T02:40:25.752Z,10.57
2018-06-30T02:42:39.919Z,10.37
2018-06-30T02:44:55.056Z,11.07
2018-06-30T02:47:08.355Z,10.43
2018-06-30T02:49:21.102Z,10.83
2018-06-30T02:51:34.390Z,10.87
2018-06-30T02:53:48.175Z,10.70
2018-06-30T02:56:01.579Z,10.93
2018-06-30T02:58:14.204Z,11.47
2018-06-30T03:00:27.321Z,11.87
2018-06-30T03:02:40.695Z,11.50
2018-06-30T03:04:53.486Z,11.23
2018-06-30T03:07:06.880Z,12.00
2018-06-30T03:09:19.539Z,12.03
2018-06-30T03:11:32.231Z,10.27
2018-06-30T03:13:45.820Z,10.80
2018-06-30T03:15:58.627Z,11.57
2018-06-30T03:18:11.295Z,11.43
2018-06-30T03:20:23.779Z,11.97
2018-06-30T03:22:36.418Z,8.00
2018-06-30T03:24:48.810Z,11.47
2018-06-30T03:27:01.347Z,10.77
2018-06-30T03:29:14.059Z,11.30
2018-06-30T03:31:27.181Z,11.83
2018-06-30T03:33:41.006Z,11.13
2018-06-30T03:35:54.547Z,12.33
2018-06-30T03:38:08.314Z,11.60
2018-06-30T03:40:20.895Z,12.63
2018-06-30T03:42:33.824Z,12.33
2018-06-30T03:44:47.815Z,11.70
2018-06-30T03:47:00.724Z,10.70
2018-06-30T03:51:38.758Z,11.63
2018-06-30T03:53:51.372Z,11.93
2018-06-30T03:56:05.327Z,12.27
2018-06-30T03:58:18.579Z,11.80
2018-06-30T04:00:31.935Z,10.83
2018-06-30T04:02:44.923Z,7.93
2018-06-30T04:04:58.766Z,11.00
2018-06-30T04:07:11.219Z,10.00
2018-06-30T04:09:23.585Z,10.63
2018-06-30T04:11:36.133Z,11.93
2018-06-30T04:13:48.486Z,11.17
2018-06-30T04:16:00.838Z,11.47
2018-06-30T04:18:13.181Z,12.10
2018-06-30T04:20:25.706Z,9.97
2018-06-30T04:22:38.878Z,10.67
2018-06-30T04:24:51.205Z,11.50
2018-06-30T04:27:03.904Z,11.60
2018-06-30T04:29:16.278Z,7.70
2018-06-30T04:31:28.695Z,12.60
2018-06-30T04:33:41.028Z,11.30
2018-06-30T04:35:53.442Z,11.93
2018-06-30T04:38:05.821Z,11.70
2018-06-30T04:40:18.230Z,13.43
2018-06-30T04:42:30.622Z,11.90
2018-06-30T04:44:43.007Z,12.83
2018-06-30T04:46:55.386Z,13.07
2018-06-30T04:49:09.630Z,10.37
2018-06-30T04:51:22.181Z,9.27
2018-06-30T04:53:34.654Z,12.17
2018-06-30T04:55:47.066Z,11.30
2018-06-30T04:57:59.453Z,9.90
2018-06-30T05:00:12.022Z,8.43
2018-06-30T05:02:24.349Z,11.50
2018-06-30T05:04:36.694Z,11.23
2018-06-30T05:06:49.030Z,11.20
2018-06-30T05:09:01.378Z,9.80
2018-06-30T05:11:13.746Z,12.50
2018-06-30T05:13:26.149Z,9.40
2018-06-30T05:15:40.220Z,12.63
2018-06-30T05:17:52.649Z,13.10
2018-06-30T05:20:05.149Z,12.27
2018-06-30T05:22:17.623Z,13.07
2018-06-30T05:24:30.129Z,12.83
2018-06-30T05:26:42.533Z,11.80
2018-06-30T05:28:54.999Z,12.17
2018-06-30T05:31:07.572Z,11.33
2018-06-30T05:33:20.016Z,11.57
2018-06-30T05:35:32.293Z,11.97
2018-06-30T05:37:44.747Z,11.10
2018-06-30T05:39:57.163Z,11.43
2018-06-30T05:42:09.503Z,13.27
2018-06-30T05:44:24.821Z,15.10
2018-06-30T05:46:37.418Z,15.83
2018-06-30T05:48:49.746Z,15.50
2018-06-30T05:51:02.118Z,16.17
2018-06-30T05:53:14.519Z,14.10
2018-06-30T05:55:26.885Z,14.97
2018-06-30T05:57:39.319Z,14.53
2018-06-30T05:59:51.727Z,16.27
2018-06-30T06:02:04.318Z,14.93
2018-06-30T06:04:16.647Z,15.23
2018-06-30T06:06:29.058Z,16.23
2018-06-30T06:08:41.519Z,15.47
2018-06-30T06:10:53.919Z,15.40
2018-06-30T06:13:06.413Z,15.43
2018-06-30T06:15:19.731Z,13.67
2018-06-30T06:17:32.006Z,15.00
2018-06-30T06:19:44.825Z,14.83
2018-06-30T06:21:57.251Z,13.67
2018-06-30T06:24:09.694Z,13.70
2018-06-30T06:26:22.127Z,11.53
2018-06-30T06:28:34.487Z,13.93
2018-06-30T06:30:47.050Z,14.57
2018-06-30T06:32:59.386Z,14.37
2018-06-30T06:35:12.624Z,14.50
2018-06-30T06:37:25.070Z,13.43
2018-06-30T06:39:37.437Z,14.03
2018-06-30T06:41:50.099Z,12.90
2018-06-30T06:44:02.865Z,12.20
2018-06-30T06:46:15.308Z,12.30
2018-06-30T06:48:27.857Z,11.70
2018-06-30T06:50:40.366Z,10.73
2018-06-30T06:52:52.722Z,11.23
2018-06-30T06:55:05.207Z,10.60
2018-06-30T06:57:17.546Z,12.13
2018-06-30T06:59:29.958Z,12.93
2018-06-30T07:01:42.326Z,12.57
2018-06-30T07:03:54.714Z,11.20
2018-06-30T07:06:07.413Z,10.57
2018-06-30T07:08:23.635Z,10.50
2018-06-30T07:10:36.205Z,10.23
2018-06-30T07:12:50.628Z,10.97
2018-06-30T07:15:03.066Z,10.33
2018-06-30T07:17:15.398Z,8.70
2018-06-30T07:19:28.645Z,9.33
2018-06-30T07:21:41.070Z,9.57
2018-06-30T07:23:53.478Z,9.77
2018-06-30T07:26:10.654Z,9.87
2018-06-30T07:28:23.162Z,8.03
2018-06-30T07:30:35.726Z,8.43
2018-06-30T07:32:48.657Z,8.87
2018-06-30T07:35:01.470Z,9.27
2018-06-30T07:37:14.194Z,8.97
2018-06-30T07:39:26.706Z,9.30
2018-06-30T07:41:40.226Z,8.20
2018-06-30T07:43:52.683Z,8.80
2018-06-30T07:46:05.287Z,9.40
2018-06-30T07:48:17.629Z,9.17
2018-06-30T07:50:29.951Z,8.40
2018-06-30T07:52:48.307Z,6.70
2018-06-30T07:55:00.667Z,8.37
2018-06-30T07:57:13.053Z,8.37
2018-06-30T07:59:25.487Z,7.17
2018-06-30T08:01:38.931Z,7.73
2018-06-30T08:03:51.329Z,7.67
2018-06-30T08:06:03.810Z,6.90
2018-06-30T08:08:16.586Z,7.33
2018-06-30T08:10:29.123Z,6.53
2018-06-30T08:12:41.473Z,5.97
2018-06-30T08:14:54.138Z,6.73
2018-06-30T08:17:06.537Z,6.60
2018-06-30T08:19:19.082Z,6.37
2018-06-30T08:21:31.571Z,6.43
2018-06-30T08:23:43.972Z,6.03
2018-06-30T08:25:56.433Z,6.07
2018-06-30T08:28:08.883Z,6.90
2018-06-30T08:30:21.261Z,6.07
2018-06-30T08:32:33.626Z,6.87
2018-06-30T08:34:46.066Z,6.10
2018-06-30T08:36:58.566Z,6.00
2018-06-30T08:39:19.255Z,6.37
2018-06-30T08:41:31.671Z,6.00
2018-06-30T08:43:44.194Z,5.93
2018-06-30T08:45:56.526Z,6.30
2018-06-30T08:48:09.040Z,6.50
2018-06-30T08:50:21.487Z,6.10
2018-06-30T08:52:44.486Z,6.17
2018-06-30T08:54:56.913Z,6.03
2018-06-30T08:57:09.502Z,6.00
2018-06-30T08:59:21.901Z,6.30
2018-06-30T09:01:34.361Z,5.90
2018-06-30T09:03:46.837Z,6.20
2018-06-30T09:05:59.176Z,5.43
2018-06-30T09:08:11.542Z,6.30
2018-06-30T09:10:24.017Z,5.17
2018-06-30T09:12:36.389Z,5.30
2018-06-30T09:14:48.827Z,5.13
2018-06-30T09:17:01.254Z,5.75
2018-06-30T09:19:13.714Z,5.22
2018-06-30T09:21:26.107Z,5.37
2018-06-30T09:23:38.486Z,5.83
2018-06-30T09:25:53.606Z,5.62
2018-06-30T09:28:06.106Z,5.05
2018-06-30T09:30:19.361Z,5.35
2018-06-30T09:32:31.737Z,5.43
2018-06-30T09:34:44.169Z,5.87
2018-06-30T09:36:56.575Z,5.33
2018-06-30T09:39:09.979Z,4.80
2018-06-30T09:41:22.446Z,4.97
2018-06-30T09:43:34.941Z,4.92
2018-06-30T09:45:51.350Z,4.65
2018-06-30T09:48:03.822Z,4.25
2018-06-30T09:50:16.310Z,5.03
2018-06-30T09:52:28.695Z,4.85
2018-06-30T09:54:41.157Z,5.08
2018-06-30T09:56:53.718Z,5.00
2018-06-30T09:59:06.056Z,5.08
2018-06-30T10:01:18.531Z,4.35
2018-06-30T10:03:30.878Z,4.33
2018-06-30T10:05:43.368Z,4.50
2018-06-30T10:07:55.765Z,4.35
2018-06-30T10:10:08.217Z,4.72
2018-06-30T10:12:20.662Z,4.58
2018-06-30T10:14:33.157Z,4.58
2018-06-30T10:16:45.572Z,4.55
2018-06-30T10:18:57.944Z,4.10
2018-06-30T10:21:10.496Z,3.90
2018-06-30T10:23:22.857Z,4.20
2018-06-30T10:25:35.230Z,4.62
2018-06-30T10:27:47.779Z,4.03
2018-06-30T10:30:00.933Z,3.62
2018-06-30T10:32:13.394Z,3.72
2018-06-30T10:34:25.776Z,3.92
2018-06-30T10:36:38.221Z,3.60
2018-06-30T10:38:50.594Z,3.60
2018-06-30T10:41:03.023Z,3.90
2018-06-30T10:43:15.501Z,3.77
2018-06-30T10:45:27.892Z,3.55
2018-06-30T10:47:40.367Z,3.65
2018-06-30T10:49:52.768Z,3.90
2018-06-30T10:52:05.159Z,3.60
2018-06-30T10:54:17.670Z,4.20
2018-06-30T10:56:30.110Z,4.12
2018-06-30T10:58:44.271Z,4.10
2018-06-30T11:00:56.657Z,3.62
2018-06-30T11:03:09.259Z,3.22
2018-06-30T11:05:21.662Z,3.47
2018-06-30T11:07:34.095Z,3.62
2018-06-30T11:09:48.312Z,3.95
2018-06-30T11:12:03.715Z,3.55
2018-06-30T11:14:16.202Z,3.60
2018-06-30T11:16:28.627Z,3.70
2018-06-30T11:18:42.034Z,2.92
2018-06-30T11:20:54.615Z,3.80
2018-06-30T11:23:07.018Z,3.72
2018-06-30T11:25:19.378Z,3.58
2018-06-30T11:27:31.866Z,4.00
2018-06-30T11:29:47.170Z,3.55
2018-06-30T11:31:59.633Z,3.52
2018-06-30T11:34:12.038Z,3.50
2018-06-30T11:36:24.458Z,3.60
2018-06-30T11:38:36.962Z,3.50
2018-06-30T11:40:49.518Z,3.83
2018-06-30T11:43:01.826Z,3.62
2018-06-30T11:45:14.259Z,4.00
2018-06-30T11:47:26.621Z,3.83
2018-06-30T11:49:39.078Z,3.30
2018-06-30T11:51:51.401Z,3.70
2018-06-30T11:54:03.805Z,3.62
2018-06-30T11:56:16.187Z,3.80
2018-06-30T11:58:28.568Z,3.45
2018-06-30T12:00:40.978Z,3.42
2018-06-30T12:02:53.425Z,3.75
2018-06-30T12:05:06.918Z,3.05
2018-06-30T12:07:19.321Z,3.50
2018-06-30T12:09:35.550Z,3.45
2018-06-30T12:11:47.926Z,3.45
2018-06-30T12:14:01.359Z,2.80
2018-06-30T12:16:14.790Z,3.20
2018-06-30T12:18:27.320Z,3.05
2018-06-30T12:20:41.610Z,3.17
2018-06-30T12:22:53.970Z,3.60
2018-06-30T12:25:06.475Z,3.27
2018-06-30T12:27:18.835Z,3.45
2018-06-30T12:29:32.035Z,3.27
2018-06-30T12:31:44.369Z,3.30
2018-06-30T12:33:56.810Z,3.42
2018-06-30T12:36:10.922Z,3.00
2018-06-30T12:38:23.324Z,2.90
2018-06-30T12:40:35.825Z,3.15
2018-06-30T12:42:48.259Z,3.02
2018-06-30T12:45:00.695Z,3.00
2018-06-30T12:47:13.894Z,3.08
2018-06-30T12:49:26.454Z,2.70
2018-06-30T12:51:38.867Z,3.45
2018-06-30T12:53:51.229Z,3.02
2018-06-30T12:56:04.041Z,2.62
2018-06-30T12:58:16.679Z,2.60
2018-06-30T13:00:29.970Z,3.17
2018-06-30T13:02:42.423Z,3.47
2018-06-30T13:04:54.807Z,3.02
2018-06-30T13:07:07.265Z,2.90
2018-06-30T13:09:25.516Z,2.87
2018-06-30T13:11:37.950Z,3.08
2018-06-30T13:13:51.366Z,3.52
2018-06-30T13:16:06.066Z,3.40
2018-06-30T13:18:18.554Z,3.10
2018-06-30T13:20:31.025Z,3.10
2018-06-30T13:22:43.612Z,3.50
2018-06-30T13:24:55.985Z,3.52
2018-06-30T13:27:09.164Z,3.77
2018-06-30T13:29:22.542Z,3.47
2018-06-30T13:31:34.930Z,3.35
2018-06-30T13:33:47.355Z,3.27
2018-06-30T13:35:59.823Z,3.12
2018-06-30T13:38:12.247Z,3.22
2018-06-30T13:40:25.639Z,3.65
2018-06-30T13:42:39.067Z,3.77
2018-06-30T13:44:52.453Z,3.75
2018-06-30T13:47:04.976Z,3.30
2018-06-30T13:49:17.343Z,3.70
2018-06-30T13:51:29.798Z,2.85
2018-06-30T13:53:42.158Z,3.20
2018-06-30T13:55:55.300Z,3.22
2018-06-30T13:58:07.701Z,3.60
2018-06-30T14:00:28.114Z,3.22
2018-06-30T14:02:40.974Z,3.45
2018-06-30T14:04:53.407Z,3.80
2018-06-30T14:07:05.975Z,3.37
2018-06-30T14:09:18.285Z,3.22
2018-06-30T14:11:30.739Z,3.50
2018-06-30T14:13:43.103Z,3.12
2018-06-30T14:15:55.419Z,3.70
2018-06-30T14:18:07.919Z,3.20
2018-06-30T14:20:20.226Z,3.67
2018-06-30T14:22:32.665Z,3.40
2018-06-30T14:24:45.081Z,3.45
2018-06-30T14:26:57.474Z,3.33
2018-06-30T14:29:09.870Z,3.50
2018-06-30T14:31:22.440Z,4.08
2018-06-30T14:33:35.005Z,3.77
2018-06-30T14:35:47.383Z,3.42
2018-06-30T14:37:59.750Z,3.52
2018-06-30T14:40:12.194Z,4.20
2018-06-30T14:42:24.706Z,4.00
2018-06-30T14:44:37.138Z,4.20
2018-06-30T14:46:49.530Z,3.62
2018-06-30T14:49:02.337Z,4.00
2018-06-30T14:51:14.893Z,4.10
2018-06-30T14:53:27.267Z,3.70
2018-06-30T14:55:39.727Z,3.87
2018-06-30T14:57:52.141Z,4.22
2018-06-30T15:00:05.645Z,4.37
2018-06-30T15:02:18.066Z,3.90
2018-06-30T15:04:30.641Z,4.13
2018-06-30T15:06:43.990Z,3.60
2018-06-30T15:08:56.417Z,3.70
2018-06-30T15:11:08.950Z,4.40
2018-06-30T15:13:21.370Z,3.80
2018-06-30T15:15:33.778Z,4.00
2018-06-30T15:17:46.211Z,4.60
2018-06-30T15:19:59.754Z,4.30
2018-06-30T15:22:12.169Z,4.20
2018-06-30T15:24:24.857Z,4.10
2018-06-30T15:26:37.342Z,4.20
2018-06-30T15:28:49.737Z,4.20
2018-06-30T15:31:02.970Z,4.30
2018-06-30T15:33:15.336Z,4.37
2018-06-30T15:35:27.663Z,3.87
2018-06-30T15:37:40.233Z,3.80
2018-06-30T15:39:52.558Z,3.60
2018-06-30T15:42:05.074Z,4.17
2018-06-30T15:44:25.229Z,3.70
2018-06-30T15:46:37.608Z,4.40
2018-06-30T15:48:50.017Z,4.17
2018-06-30T15:51:02.414Z,4.07
2018-06-30T15:53:14.982Z,3.80
2018-06-30T15:55:27.503Z,4.33
2018-06-30T15:57:39.907Z,4.27
2018-06-30T15:59:52.205Z,4.00
2018-06-30T16:02:04.718Z,4.03
2018-06-30T16:04:17.122Z,3.85
2018-06-30T16:06:29.939Z,3.90
2018-06-30T16:08:42.506Z,4.27
2018-06-30T16:10:54.869Z,4.30
2018-06-30T16:13:07.333Z,4.37
2018-06-30T16:15:19.684Z,3.90
2018-06-30T16:17:32.078Z,4.00
2018-06-30T16:19:44.768Z,3.93
2018-06-30T16:21:57.186Z,4.33
2018-06-30T16:24:09.538Z,3.80
2018-06-30T16:26:21.862Z,4.60
2018-06-30T16:28:34.201Z,4.03
2018-06-30T16:30:46.914Z,3.87
2018-06-30T16:32:59.438Z,3.57
2018-06-30T16:35:11.776Z,4.07
2018-06-30T16:37:24.162Z,4.40
2018-06-30T16:39:36.511Z,4.17
2018-06-30T16:41:49.157Z,3.87
2018-06-30T16:44:01.591Z,4.20
2018-06-30T16:46:13.963Z,4.10
2018-06-30T16:48:26.294Z,4.10
2018-06-30T16:50:38.743Z,4.03
2018-06-30T16:52:51.150Z,3.67
2018-06-30T16:55:03.571Z,3.90
2018-06-30T16:57:15.991Z,4.40
2018-06-30T16:59:28.514Z,4.30
2018-06-30T17:01:40.970Z,4.10
2018-06-30T17:03:53.339Z,4.10
2018-06-30T17:06:05.805Z,4.00
2018-06-30T17:08:18.177Z,4.10
2018-06-30T17:10:30.628Z,4.10
2018-06-30T17:12:45.117Z,4.07
2018-06-30T17:14:57.660Z,3.57
2018-06-30T17:17:10.059Z,4.20
2018-06-30T17:19:22.464Z,4.00
2018-06-30T17:21:34.999Z,3.93
2018-06-30T17:23:47.362Z,4.37
2018-06-30T17:25:59.965Z,4.83
2018-06-30T17:28:12.363Z,4.77
2018-06-30T17:30:24.727Z,4.83
2018-06-30T17:32:38.052Z,4.53
2018-06-30T17:34:50.463Z,4.63
2018-06-30T17:37:02.911Z,4.90
2018-06-30T17:39:20.806Z,4.97
2018-06-30T17:41:33.285Z,4.07
2018-06-30T17:43:45.651Z,3.77
2018-06-30T17:45:58.074Z,4.47
2018-06-30T17:48:10.494Z,4.43
2018-06-30T17:50:23.594Z,4.07
2018-06-30T17:52:36.025Z,4.40
2018-06-30T17:54:48.498Z,4.67
2018-06-30T17:57:00.834Z,4.10
2018-06-30T17:59:13.449Z,4.17
2018-06-30T18:01:25.982Z,3.87
2018-06-30T18:03:38.373Z,4.03
2018-06-30T18:05:50.839Z,4.33
2018-06-30T18:08:03.215Z,4.27
2018-06-30T18:10:15.692Z,4.10
2018-06-30T18:12:28.180Z,3.70
2018-06-30T18:14:40.623Z,4.37
2018-06-30T18:16:53.038Z,4.30
2018-06-30T18:19:05.459Z,4.20
2018-06-30T18:21:17.890Z,4.37
2018-06-30T18:23:30.225Z,4.17
2018-06-30T18:25:42.620Z,3.97
2018-06-30T18:27:54.997Z,3.80
2018-06-30T18:30:07.558Z,3.93
2018-06-30T18:32:19.987Z,3.73
2018-06-30T18:34:32.343Z,3.70
2018-06-30T18:36:44.718Z,3.87
2018-06-30T18:38:57.074Z,4.03
2018-06-30T18:41:09.695Z,3.70
2018-06-30T18:43:22.124Z,3.87
2018-06-30T18:45:34.478Z,3.80
2018-06-30T18:47:46.899Z,3.70
2018-06-30T18:49:59.310Z,3.50
2018-06-30T18:52:11.681Z,3.43
2018-06-30T18:54:24.154Z,3.13
2018-06-30T18:56:36.602Z,3.23
2018-06-30T18:58:48.970Z,3.20
2018-06-30T19:01:01.519Z,3.17
2018-06-30T19:03:13.943Z,2.60
2018-06-30T19:05:26.344Z,3.07
2018-06-30T19:07:38.735Z,2.70
2018-06-30T19:09:51.210Z,2.20
2018-06-30T19:12:03.738Z,1.70
2018-06-30T19:14:16.203Z,1.90
2018-06-30T19:16:28.570Z,2.00
2018-06-30T19:18:41.025Z,1.80
2018-06-30T19:20:53.456Z,2.00
2018-06-30T19:23:05.866Z,1.70
2018-06-30T19:25:18.253Z,1.57
2018-06-30T19:27:30.678Z,1.57
2018-06-30T19:29:43.079Z,1.67
2018-06-30T19:31:55.451Z,1.50
2018-06-30T19:34:07.851Z,1.40
2018-06-30T19:36:20.470Z,1.73
2018-06-30T19:38:33.102Z,1.20
2018-06-30T19:40:45.624Z,1.40
2018-06-30T19:42:57.991Z,1.10
2018-06-30T19:45:10.402Z,1.00
2018-06-30T19:47:22.933Z,0.83
2018-06-30T19:49:35.626Z,1.23
2018-06-30T19:51:48.085Z,1.03
2018-06-30T19:54:00.501Z,1.00
2018-06-30T19:56:12.894Z,0.90
2018-06-30T19:58:25.284Z,0.70
2018-06-30T20:00:37.794Z,1.00
2018-06-30T20:02:50.330Z,1.00
2018-06-30T20:05:02.723Z,0.87
2018-06-30T20:07:15.067Z,0.77
2018-06-30T20:09:27.466Z,0.80
2018-06-30T20:11:39.990Z,0.80
2018-06-30T20:13:52.463Z,0.70
2018-06-30T20:16:04.874Z,0.77
2018-06-30T20:18:17.306Z,0.70
2018-06-30T20:20:29.677Z,0.70
2018-06-30T20:22:42.120Z,0.73
2018-06-30T20:24:54.506Z,0.63
2018-06-30T20:27:06.931Z,0.60
2018-06-30T20:29:19.458Z,0.60
2018-06-30T20:31:31.848Z,0.53
2018-06-30T20:33:44.215Z,0.60
2018-06-30T20:35:56.831Z,0.60
2018-06-30T20:38:09.274Z,0.80
2018-06-30T20:40:21.744Z,0.90
2018-06-30T20:42:34.170Z,1.90
2018-06-30T20:44:46.542Z,2.10
2018-06-30T20:46:58.979Z,1.23
2018-06-30T20:49:11.399Z,1.17
2018-06-30T20:51:23.802Z,0.90
2018-06-30T20:53:36.368Z,1.00
2018-06-30T20:55:49.405Z,0.80
2018-06-30T20:58:01.820Z,0.50
2018-06-30T21:00:14.301Z,0.77
2018-06-30T21:02:26.711Z,0.90
2018-06-30T21:04:39.158Z,0.60
2018-06-30T21:06:51.486Z,1.00
2018-06-30T21:09:06.834Z,0.80
2018-06-30T21:11:20.002Z,0.90
2018-06-30T21:13:32.337Z,1.00
2018-06-30T21:15:44.720Z,0.83
2018-06-30T21:17:57.254Z,0.80
2018-06-30T21:20:09.945Z,0.97
2018-06-30T21:22:22.442Z,0.77
2018-06-30T21:24:34.866Z,0.87
2018-06-30T21:26:47.243Z,0.50
2018-06-30T21:28:59.689Z,0.87
2018-06-30T21:31:12.182Z,0.70
2018-06-30T21:33:24.541Z,0.80
2018-06-30T21:35:36.945Z,0.97
2018-06-30T21:37:49.714Z,0.93
2018-06-30T21:40:02.281Z,0.80
2018-06-30T21:42:14.638Z,0.67
2018-06-30T21:44:27.050Z,0.70
2018-06-30T21:46:39.582Z,0.50
2018-06-30T21:48:52.075Z,0.50
2018-06-30T21:51:04.610Z,0.60
2018-06-30T21:53:16.944Z,0.70
2018-06-30T21:55:29.375Z,0.50
2018-06-30T21:57:41.842Z,0.50
2018-06-30T21:59:54.525Z,0.47
2018-06-30T22:02:08.216Z,0.50
2018-06-30T22:04:20.600Z,0.50
2018-06-30T22:06:33.062Z,0.60
2018-06-30T22:08:45.462Z,0.40
2018-06-30T22:10:57.977Z,0.80
2018-06-30T22:13:10.415Z,0.50
2018-06-30T22:15:22.846Z,0.50
2018-06-30T22:17:35.197Z,0.40
2018-06-30T22:19:47.594Z,0.60
2018-06-30T22:22:00.189Z,0.63
2018-06-30T22:24:12.665Z,0.63
2018-06-30T22:26:25.116Z,0.60
2018-06-30T22:28:37.437Z,0.60
2018-06-30T22:30:49.843Z,0.60
2018-06-30T22:33:02.199Z,0.60
2018-06-30T22:35:14.597Z,0.60
2018-06-30T22:37:27.033Z,0.50
2018-06-30T22:40:17.455Z,0.70
2018-06-30T22:42:29.822Z,0.60
2018-06-30T22:44:42.396Z,0.50
2018-06-30T22:46:54.795Z,0.80
2018-06-30T22:49:07.202Z,0.67
2018-06-30T22:51:19.612Z,0.60
2018-06-30T22:53:32.050Z,0.60
2018-06-30T22:55:44.638Z,0.80
2018-06-30T22:57:57.210Z,0.60
2018-06-30T23:00:11.053Z,0.60
2018-06-30T23:02:23.463Z,0.80
2018-06-30T23:04:35.986Z,1.00
2018-06-30T23:06:48.360Z,0.80
2018-06-30T23:09:00.711Z,0.70
2018-06-30T23:11:13.082Z,0.77
2018-06-30T23:13:25.438Z,0.90
2018-06-30T23:15:37.797Z,0.63
2018-06-30T23:17:50.156Z,0.93
2018-06-30T23:20:02.751Z,0.70
2018-06-30T23:22:24.572Z,0.70
2018-06-30T23:24:36.971Z,0.80
2018-06-30T23:26:49.342Z,0.90
2018-06-30T23:29:01.724Z,0.90
2018-06-30T23:31:14.117Z,1.07
2018-06-30T23:33:26.478Z,1.07
2018-06-30T23:35:38.870Z,1.03
2018-06-30T23:37:51.606Z,0.80
2018-06-30T23:40:04.337Z,1.07
2018-06-30T23:42:16.823Z,1.40
2018-06-30T23:44:29.266Z,1.00
2018-06-30T23:46:41.654Z,0.80
2018-06-30T23:48:54.105Z,0.93
2018-06-30T23:51:06.510Z,1.10
2018-06-30T23:53:18.901Z,0.90
2018-06-30T23:55:31.379Z,1.17
2018-06-30T23:57:43.896Z,1.00
2018-06-30T23:59:56.302Z,0.93
